Time;durP1;ratioP1;P1;durP2;ratioP2;P2;SDS_P1;SDS_P2;PMS_P1;PMS_P2;Temp;Humidity;BMP_temperature;BMP_pressure;BME280_temperature;BME280_humidity;BME280_pressure;Samples;Min_cycle;Max_cycle;Signal;HPM_P1;HPM_P2
2021/11/27 00:01:04;;;;;;;;;1.50;1.00;;;;;20.50;35.44;98409.13;5098544;27;45384;-49
2021/11/27 00:03:30;;;;;;;;;1.25;1.25;;;;;20.49;35.63;98404.84;5098649;27;45390;-51
2021/11/27 00:05:56;;;;;;;;;0.00;0.00;;;;;20.54;35.12;98407.88;5098536;27;45425;-48
2021/11/27 00:08:22;;;;;;;;;1.50;1.50;;;;;20.58;35.28;98411.88;5098829;27;45353;-47
2021/11/27 00:10:50;;;;;;;;;2.00;1.00;;;;;20.61;35.15;98398.44;5098196;27;46478;-50
2021/11/27 00:13:16;;;;;;;;;1.00;1.00;;;;;20.66;35.47;98398.00;5098472;27;45304;-52
2021/11/27 00:15:43;;;;;;;;;1.50;1.00;;;;;20.70;35.55;98400.19;5098519;27;45354;-56
2021/11/27 00:18:12;;;;;;;;;1.00;1.00;;;;;20.75;35.36;98396.34;5098991;27;45206;-52
2021/11/27 00:20:45;;;;;;;;;1.00;1.00;;;;;20.82;35.31;98397.41;5098461;27;45529;-56
2021/11/27 00:23:11;;;;;;;;;3.25;2.00;;;;;20.85;35.34;98394.47;5098475;27;45335;-54
2021/11/27 00:25:36;;;;;;;;;1.75;0.25;;;;;20.87;35.11;98400.44;5098639;27;45398;-53
2021/11/27 00:28:02;;;;;;;;;2.50;1.25;;;;;20.92;35.14;98400.81;5098375;27;45669;-60
2021/11/27 00:30:32;;;;;;;;;0.00;0.00;;;;;20.97;35.43;98403.84;5098104;27;46466;-55
2021/11/27 00:32:58;;;;;;;;;3.00;2.00;;;;;21.00;35.28;98400.91;5098219;27;45293;-63
2021/11/27 00:35:25;;;;;;;;;1.00;1.00;;;;;21.05;34.95;98404.91;5098250;27;45445;-60
2021/11/27 00:37:53;;;;;;;;;1.00;0.25;;;;;21.07;35.39;98405.59;5098396;27;45279;-53
2021/11/27 00:40:19;;;;;;;;;1.25;0.50;;;;;21.09;35.05;98401.00;5098022;27;45594;-60
2021/11/27 00:42:45;;;;;;;;;1.00;1.00;;;;;21.10;35.17;98402.66;5098000;27;45398;-52
2021/11/27 00:45:13;;;;;;;;;3.75;0.75;;;;;21.12;35.25;98401.53;5080217;27;45393;-61
2021/11/27 00:47:44;;;;;;;;;2.50;1.50;;;;;21.13;35.38;98389.19;5098705;27;45387;-51
2021/11/27 00:50:13;;;;;;;;;1.00;1.00;;;;;21.16;35.17;98404.69;5079570;27;47808;-59
2021/11/27 00:52:38;;;;;;;;;1.00;1.00;;;;;21.17;35.13;98401.09;5098212;27;45719;-61
2021/11/27 00:55:05;;;;;;;;;1.50;1.50;;;;;21.17;35.22;98406.34;5098223;27;45261;-56
2021/11/27 00:57:31;;;;;;;;;1.25;1.25;;;;;21.15;35.11;98411.78;5098215;27;45667;-62
2021/11/27 00:59:56;;;;;;;;;1.50;1.00;;;;;21.18;34.88;98423.81;5079603;27;46599;-62
2021/11/27 01:02:22;;;;;;;;;0.00;0.00;;;;;21.21;35.31;98423.53;5097661;27;45375;-60
2021/11/27 01:04:48;;;;;;;;;1.00;1.00;;;;;21.20;34.80;98419.25;5097748;27;45417;-63
2021/11/27 01:07:14;;;;;;;;;0.50;0.50;;;;;21.21;34.77;98422.69;5097549;27;45359;-62
2021/11/27 01:09:39;;;;;;;;;1.50;1.50;;;;;21.23;34.92;98437.34;5097803;27;45450;-64
2021/11/27 01:12:05;;;;;;;;;3.00;1.75;;;;;21.21;35.07;98415.63;5079202;27;45375;-60
2021/11/27 01:14:34;;;;;;;;;1.75;0.00;;;;;21.20;35.00;98405.22;5079774;27;45339;-63
2021/11/27 01:17:08;;;;;;;;;2.00;1.00;;;;;21.21;34.93;98399.81;5097728;27;45221;-59
2021/11/27 01:19:36;;;;;;;;;1.75;1.00;;;;;21.20;35.20;98377.09;5097332;27;46196;-63
2021/11/27 01:22:11;;;;;;;;;3.50;1.75;;;;;21.21;35.00;98386.66;5097468;27;45820;-62
2021/11/27 01:24:38;;;;;;;;;0.00;0.00;;;;;21.21;34.82;98391.91;5097775;27;45402;-59
2021/11/27 01:27:03;;;;;;;;;1.75;1.75;;;;;21.21;34.54;98394.56;5097833;27;45439;-58
2021/11/27 01:29:29;;;;;;;;;1.00;1.00;;;;;21.20;34.50;98378.88;5097219;27;47077;-60
2021/11/27 01:31:54;;;;;;;;;1.00;1.00;;;;;21.19;34.73;98378.06;5097160;27;45340;-54
2021/11/27 01:34:20;;;;;;;;;3.75;1.50;;;;;21.18;34.91;98379.03;5097537;27;45333;-61
2021/11/27 01:36:46;;;;;;;;;0.75;0.75;;;;;21.18;34.50;98376.41;5079423;27;45384;-57
2021/11/27 01:39:11;;;;;;;;;1.75;0.25;;;;;21.16;34.92;98376.56;5079170;27;46145;-61
2021/11/27 01:41:37;;;;;;;;;1.00;1.00;;;;;21.15;34.67;98380.19;5097296;27;45314;-64
2021/11/27 01:44:04;;;;;;;;;0.00;0.00;;;;;21.17;34.41;98385.28;5097253;27;45236;-60
2021/11/27 01:46:30;;;;;;;;;1.00;1.00;;;;;21.15;34.65;98376.69;5097610;27;45309;-61
2021/11/27 01:48:56;;;;;;;;;0.00;0.00;;;;;21.13;34.14;98378.66;5096907;27;46112;-62
2021/11/27 01:51:23;;;;;;;;;0.00;0.00;;;;;21.11;34.33;98375.34;5097045;27;45787;-57
2021/11/27 01:53:54;;;;;;;;;1.25;1.25;;;;;21.09;34.40;98374.66;5097172;27;45287;-63
2021/11/27 01:56:27;;;;;;;;;0.75;0.75;;;;;21.10;34.54;98373.69;5097348;27;45379;-63
2021/11/27 01:58:53;;;;;;;;;0.25;0.25;;;;;21.07;34.39;98371.34;5096899;27;45382;-59
2021/11/27 02:01:24;;;;;;;;;0.00;0.00;;;;;21.08;34.36;98386.19;5096838;27;45314;-55
2021/11/27 02:03:51;;;;;;;;;1.00;1.00;;;;;21.05;34.11;98375.94;5096851;27;45353;-60
2021/11/27 02:06:19;;;;;;;;;1.00;1.00;;;;;21.06;34.19;98377.59;5096952;27;45421;-58
2021/11/27 02:08:45;;;;;;;;;0.50;0.25;;;;;21.04;34.44;98380.38;5097063;27;46284;-57
2021/11/27 02:11:14;;;;;;;;;0.25;0.25;;;;;21.02;34.17;98363.91;5095671;27;45908;-54
2021/11/27 02:13:40;;;;;;;;;0.00;0.00;;;;;21.00;34.50;98374.56;5096947;27;45335;-57
2021/11/27 02:16:06;;;;;;;;;1.00;0.00;;;;;20.99;34.21;98372.09;5078739;27;45335;-56
2021/11/27 02:18:31;;;;;;;;;0.00;0.00;;;;;20.97;34.43;98372.25;5098886;27;45614;-58
2021/11/27 02:21:02;;;;;;;;;0.00;0.00;;;;;20.96;34.65;98369.75;5100478;27;45419;-53
2021/11/27 02:23:29;;;;;;;;;1.25;0.00;;;;;20.95;34.48;98375.97;5100463;27;45472;-53
2021/11/27 02:25:55;;;;;;;;;0.75;0.75;;;;;20.92;34.25;98368.41;5100325;27;45606;-52
2021/11/27 02:28:20;;;;;;;;;0.25;0.25;;;;;20.90;34.49;98365.88;5081957;27;46305;-53
2021/11/27 02:30:46;;;;;;;;;1.00;1.00;;;;;20.88;34.49;98346.81;5100336;27;45318;-52
2021/11/27 02:33:13;;;;;;;;;1.00;0.75;;;;;20.85;34.30;98337.38;5100563;27;45332;-48
2021/11/27 02:35:39;;;;;;;;;0.00;0.00;;;;;20.84;34.69;98340.16;5082384;27;45625;-48
2021/11/27 02:38:04;;;;;;;;;0.25;0.25;;;;;20.83;34.53;98347.25;5098607;27;47975;-48
2021/11/27 02:40:31;;;;;;;;;1.50;1.00;;;;;20.81;34.50;98337.81;5100004;27;45480;-50
2021/11/27 02:42:57;;;;;;;;;0.50;0.50;;;;;20.80;34.90;98342.28;5100352;27;45483;-52
2021/11/27 02:45:22;;;;;;;;;1.00;0.00;;;;;20.78;34.62;98335.50;5100303;27;45343;-49
2021/11/27 02:47:48;;;;;;;;;1.00;1.00;;;;;20.76;34.47;98333.00;5099975;27;45463;-47
2021/11/27 02:50:13;;;;;;;;;0.00;0.00;;;;;20.77;34.54;98320.69;5100196;27;45389;-47
2021/11/27 02:52:40;;;;;;;;;2.25;0.75;;;;;20.74;34.73;98324.41;5099994;27;45306;-48
2021/11/27 02:55:06;;;;;;;;;1.00;1.00;;;;;20.73;34.84;98319.28;5081849;27;45419;-52
2021/11/27 02:57:32;;;;;;;;;0.00;0.00;;;;;20.71;34.98;98322.06;5099618;27;46779;-50
2021/11/27 02:59:59;;;;;;;;;1.50;0.00;;;;;20.74;34.33;98323.56;5099818;27;45607;-54
2021/11/27 03:02:25;;;;;;;;;1.25;1.00;;;;;20.74;34.92;98320.94;5099654;27;45343;-48
2021/11/27 03:04:51;;;;;;;;;0.00;0.00;;;;;20.76;34.73;98308.50;5100185;27;45566;-57
2021/11/27 03:07:16;;;;;;;;;0.00;0.00;;;;;20.79;34.84;98313.44;5099612;27;46872;-51
2021/11/27 03:09:42;;;;;;;;;1.00;0.00;;;;;20.80;34.32;98308.06;5099608;27;45322;-52
2021/11/27 03:12:08;;;;;;;;;0.00;0.00;;;;;20.85;34.51;98304.97;5081158;27;45458;-60
2021/11/27 03:14:33;;;;;;;;;0.00;0.00;;;;;20.89;34.86;98302.88;5099830;27;45418;-56
2021/11/27 03:16:59;;;;;;;;;0.00;0.00;;;;;20.93;34.42;98309.50;5099526;27;45830;-52
2021/11/27 03:19:26;;;;;;;;;0.50;0.50;;;;;20.96;34.64;98312.66;5099458;27;45654;-61
2021/11/27 03:21:52;;;;;;;;;1.00;1.00;;;;;21.00;34.52;98300.81;5099611;27;45321;-58
2021/11/27 03:24:17;;;;;;;;;1.25;1.25;;;;;21.04;34.61;98308.44;5100000;27;45308;-59
2021/11/27 03:26:43;;;;;;;;;0.00;0.00;;;;;21.07;34.23;98302.88;5099357;27;45417;-65
2021/11/27 03:29:08;;;;;;;;;0.25;0.25;;;;;21.09;34.53;98298.28;5099235;27;45256;-50
2021/11/27 03:31:34;;;;;;;;;0.00;0.00;;;;;21.12;34.53;98297.97;5099334;27;45381;-49
2021/11/27 03:34:00;;;;;;;;;0.00;0.00;;;;;21.14;34.70;98293.38;5099643;27;45675;-58
2021/11/27 03:36:25;;;;;;;;;0.00;0.00;;;;;21.17;34.09;98295.72;5099050;27;45617;-48
2021/11/27 03:38:51;;;;;;;;;0.00;0.00;;;;;21.17;34.56;98291.28;5099137;27;45327;-51
2021/11/27 03:41:17;;;;;;;;;0.00;0.00;;;;;21.23;34.17;98292.47;5099530;27;45359;-52
2021/11/27 03:43:43;;;;;;;;;1.25;0.00;;;;;21.24;34.13;98286.22;5099331;27;45603;-50
2021/11/27 03:46:09;;;;;;;;;0.00;0.00;;;;;21.26;34.41;98273.75;5098902;27;46244;-48
2021/11/27 03:48:38;;;;;;;;;0.00;0.00;;;;;21.29;34.07;98278.72;5099031;27;45306;-53
2021/11/27 03:51:08;;;;;;;;;0.00;0.00;;;;;21.29;33.88;98283.13;5098889;27;45280;-51
2021/11/27 03:53:37;;;;;;;;;1.00;0.00;;;;;21.31;34.06;98276.75;5080816;27;45635;-49
2021/11/27 03:56:06;;;;;;;;;0.00;0.00;;;;;21.33;33.92;98278.41;5098647;27;46282;-51
2021/11/27 03:58:32;;;;;;;;;0.00;0.00;;;;;21.33;34.23;98273.97;5098763;27;45193;-48
2021/11/27 04:00:58;;;;;;;;;0.00;0.00;;;;;21.33;34.23;98267.88;5098875;27;45473;-48
2021/11/27 04:03:25;;;;;;;;;0.00;0.00;;;;;21.34;34.27;98269.50;5098976;27;45414;-61
2021/11/27 04:05:56;;;;;;;;;1.75;0.00;;;;;21.36;34.15;98270.19;5098630;27;45472;-50
2021/11/27 04:08:22;;;;;;;;;0.00;0.00;;;;;21.33;34.08;98263.44;5098775;27;45574;-53
2021/11/27 04:10:48;;;;;;;;;0.00;0.00;;;;;21.36;33.77;98251.75;5098992;27;45736;-52
2021/11/27 04:13:15;;;;;;;;;0.00;0.00;;;;;21.38;34.27;98255.06;5098900;27;45355;-56
2021/11/27 04:15:40;;;;;;;;;0.00;0.00;;;;;21.36;33.82;98254.38;5098427;27;46285;-60
2021/11/27 04:18:06;;;;;;;;;1.00;0.00;;;;;21.36;33.98;98252.59;5080074;27;45392;-63
2021/11/27 04:20:32;;;;;;;;;0.00;0.00;;;;;21.34;33.85;98237.88;5098537;27;45443;-64
2021/11/27 04:22:57;;;;;;;;;0.00;0.00;;;;;21.39;33.90;98240.91;5080314;27;45364;-62
2021/11/27 04:25:23;;;;;;;;;0.00;0.00;;;;;21.37;33.84;98229.69;5080015;27;47209;-49
2021/11/27 04:27:49;;;;;;;;;0.00;0.00;;;;;21.36;33.75;98225.41;5098378;27;45334;-52
2021/11/27 04:30:18;;;;;;;;;0.50;0.00;;;;;21.36;33.45;98236.78;5098302;27;45373;-49
2021/11/27 04:32:44;;;;;;;;;0.00;0.00;;;;;21.36;33.64;98246.47;5080189;27;45665;-51
2021/11/27 04:35:12;;;;;;;;;0.00;0.00;;;;;21.34;33.92;98233.47;5096748;27;46632;-48
2021/11/27 04:37:37;;;;;;;;;0.00;0.00;;;;;21.33;33.43;98247.63;5079656;27;45766;-48
2021/11/27 04:40:05;;;;;;;;;2.00;0.00;;;;;21.31;33.20;98242.50;5097673;27;45264;-51
2021/11/27 04:42:30;;;;;;;;;0.75;0.00;;;;;21.30;33.35;98232.94;5098337;27;45663;-55
2021/11/27 04:44:56;;;;;;;;;0.50;0.00;;;;;21.28;33.62;98227.00;5097953;27;45714;-61
2021/11/27 04:47:21;;;;;;;;;0.00;0.00;;;;;21.27;33.34;98235.88;5098156;27;45305;-53
2021/11/27 04:49:46;;;;;;;;;0.50;0.50;;;;;21.24;33.40;98252.00;5097917;27;45787;-50
2021/11/27 04:52:12;;;;;;;;;1.75;0.00;;;;;21.23;33.17;98247.69;5098118;27;45699;-52
2021/11/27 04:54:37;;;;;;;;;0.00;0.00;;;;;21.23;33.57;98252.97;5079348;27;46450;-52
2021/11/27 04:57:03;;;;;;;;;1.00;0.00;;;;;21.18;33.79;98247.34;5097792;27;45334;-48
2021/11/27 04:59:28;;;;;;;;;0.00;0.00;;;;;21.21;33.37;98254.94;5079638;27;45451;-50
2021/11/27 05:01:54;;;;;;;;;0.00;0.00;;;;;21.18;33.52;98247.34;5098132;27;45602;-48
2021/11/27 05:04:19;;;;;;;;;0.00;0.00;;;;;21.16;33.65;98242.22;5098055;27;47224;-49
2021/11/27 05:06:45;;;;;;;;;1.00;0.00;;;;;21.17;33.57;98249.13;5097518;27;45385;-50
2021/11/27 05:09:11;;;;;;;;;0.00;0.00;;;;;21.15;33.34;98247.63;5097844;27;45367;-50
2021/11/27 05:11:37;;;;;;;;;1.25;0.00;;;;;21.13;33.19;98249.59;5079623;27;45538;-48
2021/11/27 05:14:02;;;;;;;;;0.00;0.00;;;;;21.12;33.21;98246.13;5097569;27;46590;-54
2021/11/27 05:16:29;;;;;;;;;0.50;0.00;;;;;21.10;33.06;98231.47;5097494;27;45272;-55
2021/11/27 05:18:54;;;;;;;;;0.00;0.00;;;;;21.07;33.30;98234.41;5098132;27;45588;-53
2021/11/27 05:21:20;;;;;;;;;0.00;0.00;;;;;21.04;33.37;98230.28;5098140;27;45366;-49
2021/11/27 05:23:45;;;;;;;;;0.00;0.00;;;;;21.03;33.48;98226.00;5097357;27;46288;-50
2021/11/27 05:26:11;;;;;;;;;0.50;0.00;;;;;20.99;33.26;98219.34;5097326;27;45247;-60
2021/11/27 05:28:36;;;;;;;;;1.00;0.00;;;;;20.97;33.38;98211.63;5097595;27;45438;-53
2021/11/27 05:31:02;;;;;;;;;0.25;0.25;;;;;20.95;33.81;98191.66;5097563;27;45276;-59
2021/11/27 05:36:11;;;;;;;;;0.00;0.00;;;;;20.93;33.43;98185.75;5097180;27;45260;-61
2021/11/27 05:38:37;;;;;;;;;0.00;0.00;;;;;20.91;33.31;98180.63;5097189;27;45347;-60
2021/11/27 05:41:02;;;;;;;;;0.00;0.00;;;;;20.87;33.66;98186.34;5097431;27;45660;-60
2021/11/27 05:43:28;;;;;;;;;0.00;0.00;;;;;20.87;33.69;98189.81;5096994;27;45586;-48
2021/11/27 05:45:54;;;;;;;;;0.00;0.00;;;;;20.84;33.83;98177.75;5097298;27;45298;-48
2021/11/27 05:48:19;;;;;;;;;1.00;0.00;;;;;20.83;33.75;98191.09;5097356;27;45406;-54
2021/11/27 05:50:44;;;;;;;;;0.00;0.00;;;;;20.82;33.74;98187.63;5097270;27;45522;-49
2021/11/27 05:53:13;;;;;;;;;0.00;0.00;;;;;20.80;33.63;98188.75;5095801;27;46160;-53
2021/11/27 05:55:38;;;;;;;;;0.00;0.00;;;;;20.78;33.79;98190.72;5097048;27;45890;-53
2021/11/27 05:58:03;;;;;;;;;0.00;0.00;;;;;20.73;33.51;98192.94;5097266;27;45287;-49
2021/11/27 06:00:29;;;;;;;;;0.00;0.00;;;;;20.68;33.33;98191.56;5097379;27;45305;-48
2021/11/27 06:02:54;;;;;;;;;0.75;0.00;;;;;20.67;33.66;98204.91;5097260;27;45724;-51
2021/11/27 06:05:19;;;;;;;;;0.75;0.75;;;;;20.64;33.42;98200.78;5097018;27;45355;-53
2021/11/27 06:07:45;;;;;;;;;0.00;0.00;;;;;20.60;32.72;98202.03;5096946;27;45234;-48
2021/11/27 06:10:10;;;;;;;;;1.00;0.00;;;;;20.54;33.23;98186.84;5097114;27;45235;-56
2021/11/27 06:12:36;;;;;;;;;0.75;0.75;;;;;20.53;32.98;98186.00;5078300;27;46510;-56
2021/11/27 06:15:03;;;;;;;;;0.75;0.75;;;;;20.53;33.01;98193.09;5078468;27;45408;-50
2021/11/27 06:17:28;;;;;;;;;0.00;0.00;;;;;20.49;32.93;98191.72;5078607;27;45387;-54
2021/11/27 06:19:54;;;;;;;;;0.00;0.00;;;;;20.49;32.76;98183.84;5097432;27;45326;-51
2021/11/27 06:22:22;;;;;;;;;0.00;0.00;;;;;20.47;32.62;98180.50;5096704;27;46159;-50
2021/11/27 06:24:48;;;;;;;;;0.00;0.00;;;;;20.46;32.56;98187.59;5096650;27;45611;-51
2021/11/27 06:27:13;;;;;;;;;1.00;1.00;;;;;20.43;32.31;98171.28;5078575;27;45804;-48
2021/11/27 06:29:39;;;;;;;;;1.25;0.25;;;;;20.39;32.54;98174.22;5096781;27;45244;-49
2021/11/27 06:32:08;;;;;;;;;1.25;0.00;;;;;20.37;32.12;98168.25;5096506;27;46728;-48
2021/11/27 06:34:34;;;;;;;;;0.00;0.00;;;;;20.41;32.24;98179.31;5096623;27;45422;-51
2021/11/27 06:36:59;;;;;;;;;0.00;0.00;;;;;20.42;32.66;98180.97;5095370;27;45391;-50
2021/11/27 06:39:25;;;;;;;;;1.00;1.00;;;;;20.43;32.65;98181.81;5097254;27;45643;-49
2021/11/27 06:41:50;;;;;;;;;0.00;0.00;;;;;20.44;32.33;98175.56;5078061;27;48014;-50
2021/11/27 06:44:15;;;;;;;;;1.00;1.00;;;;;20.43;32.86;98164.22;5096378;27;45322;-48
2021/11/27 06:46:41;;;;;;;;;1.25;0.00;;;;;20.43;32.80;98171.28;5096509;27;45415;-48
2021/11/27 06:49:06;;;;;;;;;0.00;0.00;;;;;20.44;32.76;98181.66;5096787;27;45589;-51
2021/11/27 06:51:32;;;;;;;;;0.00;0.00;;;;;20.40;32.91;98167.13;5095972;27;46262;-61
2021/11/27 06:53:57;;;;;;;;;0.50;0.50;;;;;20.46;32.30;98176.22;5096822;27;45367;-48
2021/11/27 06:56:22;;;;;;;;;0.00;0.00;;;;;20.43;32.88;98164.22;5096476;27;45290;-54
2021/11/27 06:58:48;;;;;;;;;0.00;0.00;;;;;20.43;32.55;98164.22;5096415;27;45550;-53
2021/11/27 07:01:13;;;;;;;;;0.00;0.00;;;;;20.43;32.57;98160.75;5096150;27;46492;-50
2021/11/27 07:03:38;;;;;;;;;0.25;0.25;;;;;20.43;32.45;98160.75;5097233;27;45350;-54
2021/11/27 07:06:04;;;;;;;;;2.00;0.75;;;;;20.44;32.94;98157.16;5099699;27;45307;-54
2021/11/27 07:08:29;;;;;;;;;0.00;0.00;;;;;20.39;32.77;98145.28;5100343;27;45623;-49
2021/11/27 07:10:54;;;;;;;;;0.50;0.50;;;;;20.42;32.88;98151.22;5099545;27;45287;-48
2021/11/27 07:13:20;;;;;;;;;0.75;0.00;;;;;20.39;32.93;98152.34;5081345;27;45395;-49
2021/11/27 07:15:47;;;;;;;;;0.00;0.00;;;;;20.38;32.51;98148.88;5081408;27;45351;-53
2021/11/27 07:18:12;;;;;;;;;0.00;0.00;;;;;20.37;33.03;98157.75;5081662;27;45409;-54
2021/11/27 07:20:37;;;;;;;;;0.00;0.00;;;;;20.36;32.73;98150.81;5081149;27;47475;-53
2021/11/27 07:23:03;;;;;;;;;0.00;0.00;;;;;20.38;32.91;98163.84;5099269;27;45318;-54
2021/11/27 07:25:30;;;;;;;;;1.25;0.00;;;;;20.36;32.54;98166.59;5099818;27;45455;-53
2021/11/27 07:27:56;;;;;;;;;0.50;0.50;;;;;20.32;33.16;98159.16;5081583;27;45553;-53
2021/11/27 07:30:22;;;;;;;;;0.00;0.00;;;;;20.33;32.95;98159.03;5080853;27;47731;-49
2021/11/27 07:32:47;;;;;;;;;0.00;0.00;;;;;20.35;32.81;98170.22;5099230;27;45236;-51
2021/11/27 07:35:13;;;;;;;;;2.00;0.25;;;;;20.33;32.74;98164.28;5099384;27;45343;-53
2021/11/27 07:37:38;;;;;;;;;0.00;0.00;;;;;20.32;32.84;98174.94;5081215;27;45204;-52
2021/11/27 07:40:06;;;;;;;;;0.00;0.00;;;;;20.31;32.82;98171.50;5098992;27;47370;-54
2021/11/27 07:42:31;;;;;;;;;0.00;0.00;;;;;20.31;33.19;98174.13;5080690;27;45560;-50
2021/11/27 07:44:57;;;;;;;;;0.75;0.00;;;;;20.30;32.70;98172.47;5099605;27;45341;-54
2021/11/27 07:47:22;;;;;;;;;1.00;1.00;;;;;20.29;32.95;98180.50;5099501;27;45552;-50
2021/11/27 07:49:47;;;;;;;;;0.00;0.00;;;;;20.26;33.24;98167.66;5099005;27;46174;-53
2021/11/27 07:52:13;;;;;;;;;0.00;0.00;;;;;20.29;33.31;98177.88;5098793;27;45286;-53
2021/11/27 07:54:38;;;;;;;;;0.50;0.50;;;;;20.25;33.18;98174.69;5099100;27;45434;-55
2021/11/27 07:57:04;;;;;;;;;0.00;0.00;;;;;20.25;32.99;98174.69;5098965;27;45557;-58
2021/11/27 07:59:33;;;;;;;;;0.00;0.00;;;;;20.26;33.15;98167.66;5099000;27;46533;-52
2021/11/27 08:01:58;;;;;;;;;0.00;0.00;;;;;20.22;33.23;98169.75;5064508;27;45719;-57
2021/11/27 08:04:24;;;;;;;;;0.00;0.00;;;;;20.20;33.06;98179.59;5099022;27;45237;-58
2021/11/27 08:06:49;;;;;;;;;0.00;0.00;;;;;20.21;33.13;98181.25;5099128;27;45522;-63
2021/11/27 08:09:14;;;;;;;;;0.00;0.00;;;;;20.20;32.79;98182.22;5098820;27;45313;-57
2021/11/27 08:11:40;;;;;;;;;0.00;0.00;;;;;20.16;33.38;98186.97;5098604;27;45229;-56
2021/11/27 08:14:05;;;;;;;;;0.00;0.00;;;;;20.17;33.39;98182.50;5080700;27;45233;-55
2021/11/27 08:16:31;;;;;;;;;0.00;0.00;;;;;20.19;33.48;98181.38;5079957;27;45280;-61
2021/11/27 08:18:56;;;;;;;;;0.00;0.00;;;;;20.20;33.08;98179.59;5097327;27;47130;-58
2021/11/27 08:21:21;;;;;;;;;0.00;0.00;;;;;20.18;33.31;98181.53;5098748;27;45216;-60
2021/11/27 08:23:47;;;;;;;;;0.00;0.00;;;;;20.17;33.48;98190.41;5098736;27;45370;-60
2021/11/27 08:26:13;;;;;;;;;1.00;1.00;;;;;20.16;33.67;98186.97;5098852;27;45588;-60
2021/11/27 08:28:38;;;;;;;;;0.00;0.00;;;;;20.15;33.47;98190.56;5079986;27;47262;-60
2021/11/27 08:31:04;;;;;;;;;0.00;0.00;;;;;20.12;33.28;98179.50;5098456;27;45431;-58
2021/11/27 08:33:29;;;;;;;;;1.00;1.00;;;;;20.14;33.50;98188.06;5098811;27;45667;-60
2021/11/27 08:35:55;;;;;;;;;0.00;0.00;;;;;20.10;33.35;98182.28;5098610;27;45402;-60
2021/11/27 08:38:20;;;;;;;;;0.00;0.00;;;;;20.08;33.30;98174.53;5098136;27;46206;-60
2021/11/27 08:40:47;;;;;;;;;1.50;0.00;;;;;20.06;33.04;98187.00;5098259;27;45462;-61
2021/11/27 08:43:12;;;;;;;;;0.00;0.00;;;;;20.06;33.33;98196.69;5098343;27;45403;-60
2021/11/27 08:45:40;;;;;;;;;0.00;0.00;;;;;20.05;33.39;98198.50;5098453;27;45311;-61
2021/11/27 08:48:05;;;;;;;;;0.00;0.00;;;;;20.03;33.12;98197.81;5098033;27;47360;-60
2021/11/27 08:50:32;;;;;;;;;2.50;0.00;;;;;20.04;33.52;98194.19;5080006;27;45280;-60
2021/11/27 08:52:57;;;;;;;;;0.75;0.75;;;;;20.02;33.74;98190.06;5098280;27;45323;-60
2021/11/27 08:55:23;;;;;;;;;0.00;0.00;;;;;19.96;33.41;98190.63;5098167;27;45520;-60
2021/11/27 08:57:48;;;;;;;;;0.00;0.00;;;;;20.00;33.43;98205.16;5097796;27;45431;-58
2021/11/27 09:00:15;;;;;;;;;0.50;0.00;;;;;19.93;33.85;98195.25;5097912;27;45301;-59
2021/11/27 09:02:41;;;;;;;;;0.00;0.00;;;;;19.97;33.72;98214.16;5098056;27;45344;-60
2021/11/27 09:05:08;;;;;;;;;0.00;0.00;;;;;19.98;33.82;98220.25;5098173;27;45483;-59
2021/11/27 09:07:34;;;;;;;;;0.50;0.00;;;;;19.96;33.54;98223.03;5097930;27;46205;-61
2021/11/27 09:10:00;;;;;;;;;0.00;0.00;;;;;19.95;34.00;98207.41;5097750;27;45383;-61
2021/11/27 09:12:26;;;;;;;;;0.00;0.00;;;;;19.93;33.56;98207.53;5097858;27;45224;-60
2021/11/27 09:14:51;;;;;;;;;0.00;0.00;;;;;19.93;33.85;98207.53;5079868;27;45639;-59
2021/11/27 09:17:18;;;;;;;;;0.00;0.00;;;;;19.93;34.09;98208.38;5079194;27;47762;-61
2021/11/27 09:19:44;;;;;;;;;0.00;0.00;;;;;19.92;33.90;98211.13;5079219;27;45800;-53
2021/11/27 09:22:10;;;;;;;;;1.00;0.00;;;;;19.93;34.16;98218.06;5097558;27;45441;-58
2021/11/27 09:24:36;;;;;;;;;0.50;0.00;;;;;19.94;33.64;98219.72;5097988;27;45612;-56
2021/11/27 09:27:01;;;;;;;;;1.50;0.00;;;;;19.91;34.05;98220.00;5097113;27;45487;-56
2021/11/27 09:29:27;;;;;;;;;0.00;0.00;;;;;19.89;33.58;98222.78;5097371;27;45342;-55
2021/11/27 09:31:52;;;;;;;;;0.00;0.00;;;;;19.86;33.63;98222.25;5097438;27;45232;-52
2021/11/27 09:34:18;;;;;;;;;0.50;0.50;;;;;19.90;33.54;98223.59;5097666;27;45339;-55
2021/11/27 09:36:45;;;;;;;;;1.25;0.25;;;;;19.91;34.05;98233.97;5097061;27;45425;-52
2021/11/27 09:39:14;;;;;;;;;0.00;0.00;;;;;19.89;33.99;98235.09;5096448;27;45905;-53
2021/11/27 09:41:42;;;;;;;;;1.75;0.00;;;;;19.88;33.80;98239.50;5096922;27;45676;-51
2021/11/27 09:44:10;;;;;;;;;1.25;0.00;;;;;19.88;34.28;98238.69;5097925;27;45492;-50
2021/11/27 09:46:38;;;;;;;;;0.00;0.00;;;;;19.89;34.06;98243.81;5097237;27;46541;-50
2021/11/27 09:49:06;;;;;;;;;0.00;0.00;;;;;19.88;34.00;98252.66;5097531;27;45833;-52
2021/11/27 09:51:33;;;;;;;;;1.00;0.00;;;;;19.87;33.93;98244.94;5097102;27;45334;-53
2021/11/27 09:54:01;;;;;;;;;1.00;0.00;;;;;19.88;34.44;98242.16;5097504;27;45238;-48
2021/11/27 09:56:28;;;;;;;;;2.75;0.00;;;;;19.89;34.28;98256.13;5096762;27;45789;-52
2021/11/27 09:58:55;;;;;;;;;0.50;0.00;;;;;19.86;33.85;98251.97;5097030;27;45285;-51
2021/11/27 10:01:27;;;;;;;;;1.00;0.00;;;;;19.88;33.88;98257.91;5097126;27;45333;-51
2021/11/27 10:04:01;;;;;;;;;0.00;0.00;;;;;19.87;34.22;98261.50;5097459;27;45602;-52
2021/11/27 10:06:28;;;;;;;;;0.00;0.00;;;;;19.87;33.79;98263.31;5096663;27;46293;-48
2021/11/27 10:08:55;;;;;;;;;0.00;0.00;;;;;19.82;34.47;98253.22;5096904;27;45326;-51
2021/11/27 10:11:21;;;;;;;;;2.00;0.00;;;;;19.86;33.96;98254.59;5096870;27;45315;-52
2021/11/27 10:13:46;;;;;;;;;1.50;0.25;;;;;19.86;34.08;98261.66;5097170;27;45339;-51
2021/11/27 10:16:12;;;;;;;;;0.00;0.00;;;;;19.86;34.23;98259.03;5096695;27;45268;-50
2021/11/27 10:18:37;;;;;;;;;0.00;0.00;;;;;19.86;34.07;98261.66;5096895;27;45417;-54
2021/11/27 10:21:18;;;;;;;;;0.50;0.00;;;;;19.88;34.57;98262.34;5096916;27;45251;-53
2021/11/27 10:23:44;;;;;;;;;0.00;0.00;;;;;19.87;34.19;98269.41;5078710;27;45403;-53
2021/11/27 10:26:33;;;;;;;;;2.00;0.00;;;;;19.85;34.27;98262.59;5096602;27;46291;-54
2021/11/27 10:29:16;;;;;;;;;0.00;0.00;;;;;19.86;34.30;98269.56;5096656;27;45181;-56
2021/11/27 10:31:42;;;;;;;;;0.50;0.50;;;;;19.85;34.19;98268.69;5096586;27;45368;-54
2021/11/27 10:34:07;;;;;;;;;0.50;0.50;;;;;19.85;34.20;98257.34;5079179;27;45609;-59
2021/11/27 10:36:33;;;;;;;;;0.00;0.00;;;;;19.90;34.46;98263.00;5096350;27;46599;-55
2021/11/27 10:39:06;;;;;;;;;1.00;0.00;;;;;19.92;34.82;98266.34;5097885;27;45206;-60
2021/11/27 10:41:37;;;;;;;;;0.50;0.00;;;;;19.94;34.43;98259.16;5099972;27;45379;-60
2021/11/27 10:44:12;;;;;;;;;0.75;0.00;;;;;20.00;34.49;98268.25;5100176;27;45452;-56
2021/11/27 10:46:39;;;;;;;;;0.00;0.00;;;;;20.03;34.44;98263.53;5081793;27;47406;-52
2021/11/27 10:49:07;;;;;;;;;2.25;0.00;;;;;20.07;34.44;98267.53;5099959;27;45393;-51
2021/11/27 10:51:33;;;;;;;;;1.00;0.00;;;;;20.10;34.06;98258.53;5099915;27;45217;-51
2021/11/27 10:54:03;;;;;;;;;0.25;0.00;;;;;20.16;34.68;98265.00;5100074;27;45503;-55
2021/11/27 10:56:47;;;;;;;;;0.00;0.00;;;;;20.20;34.45;98259.31;5099834;27;47190;-51
2021/11/27 10:59:14;;;;;;;;;0.00;0.00;;;;;20.22;34.21;98264.44;5099894;27;45315;-55
2021/11/27 11:02:02;;;;;;;;;0.00;0.00;;;;;20.29;34.42;98272.56;5100189;27;45387;-54
2021/11/27 11:04:29;;;;;;;;;0.00;0.00;;;;;20.29;34.17;98267.28;5100011;27;45446;-54
2021/11/27 11:07:18;;;;;;;;;2.00;0.00;;;;;20.32;33.94;98270.47;5099390;27;45453;-54
2021/11/27 11:10:07;;;;;;;;;1.00;1.00;;;;;20.36;34.11;98266.56;5099570;27;45333;-55
2021/11/27 11:12:42;;;;;;;;;0.00;0.00;;;;;20.39;33.71;98266.28;5099496;27;45366;-52
2021/11/27 11:15:16;;;;;;;;;0.00;0.00;;;;;20.41;34.12;98276.66;5100244;27;45398;-55
2021/11/27 11:17:43;;;;;;;;;0.00;0.00;;;;;20.43;33.65;98271.25;5099593;27;46592;-51
2021/11/27 11:20:24;;;;;;;;;0.00;0.00;;;;;20.46;34.04;98276.19;5099666;27;45380;-54
2021/11/27 11:23:04;;;;;;;;;0.00;0.00;;;;;20.48;34.00;98271.63;5099557;27;45327;-52
2021/11/27 11:25:30;;;;;;;;;0.00;0.00;;;;;20.49;33.83;98265.41;5081306;27;45617;-55
2021/11/27 11:27:58;;;;;;;;;1.00;0.00;;;;;20.47;33.67;98264.72;5099262;27;45642;-51
2021/11/27 11:30:35;;;;;;;;;0.00;0.00;;;;;20.52;33.77;98270.38;5099186;27;45947;-51
2021/11/27 11:33:01;;;;;;;;;0.00;0.00;;;;;20.54;33.47;98273.69;5099462;27;45757;-52
2021/11/27 11:35:26;;;;;;;;;0.00;0.00;;;;;20.57;33.77;98275.19;5099591;27;45445;-50